createdAt,value
2022-11-06T00:01:50.715Z,101535.69
2022-11-06T00:04:17.664Z,101547.84
2022-11-06T00:06:50.745Z,101546.16
2022-11-06T00:09:20.848Z,101540.94
2022-11-06T00:11:50.131Z,101554.94
2022-11-06T00:14:18.021Z,101543.66
2022-11-06T00:16:46.578Z,101544.59
2022-11-06T00:19:13.683Z,101546.38
2022-11-06T00:21:40.583Z,101547.31
2022-11-06T00:24:09.452Z,101536.91
2022-11-06T00:26:36.403Z,101542.97
2022-11-06T00:29:05.204Z,101541.22
2022-11-06T00:31:37.082Z,101538.63
2022-11-06T00:34:07.503Z,101536.03
2022-11-06T00:36:35.144Z,101540.31
2022-11-06T00:39:02.569Z,101538.59
2022-11-06T00:41:29.453Z,101538.56
2022-11-06T00:44:01.371Z,101531.59
2022-11-06T00:46:28.986Z,101529.75
2022-11-06T00:48:56.454Z,101525.47
2022-11-06T00:51:30.827Z,101521.94
2022-11-06T00:54:04.611Z,101527.97
2022-11-06T00:56:32.513Z,101528.78
2022-11-06T00:59:00.990Z,101516.59
2022-11-06T01:01:34.609Z,101523.47
2022-11-06T01:04:14.599Z,101523.38
2022-11-06T01:06:44.938Z,101519.88
2022-11-06T01:09:15.686Z,101517.09
2022-11-06T01:12:11.935Z,101512.88
2022-11-06T01:14:34.750Z,101514.53
2022-11-06T01:17:01.767Z,101506.75
2022-11-06T01:19:28.681Z,101498.06
2022-11-06T01:21:55.612Z,101500.66
2022-11-06T01:24:27.072Z,101487.63
2022-11-06T01:27:20.388Z,101499.75
2022-11-06T01:29:41.299Z,101493.59
2022-11-06T01:32:08.350Z,101490.09
2022-11-06T01:34:35.237Z,101487.41
2022-11-06T01:37:02.348Z,101483.03
2022-11-06T01:39:29.235Z,101483.84
2022-11-06T01:41:56.115Z,101477.72
2022-11-06T01:44:40.856Z,101470.75
2022-11-06T01:47:25.771Z,101472.44
2022-11-06T01:50:00.231Z,101461.06
2022-11-06T01:52:29.248Z,101460.97
2022-11-06T01:55:11.550Z,101461.03
2022-11-06T01:57:38.532Z,101463.56
2022-11-06T02:00:07.088Z,101460.91
2022-11-06T02:02:34.740Z,101462.59
2022-11-06T02:05:01.740Z,101460.81
2022-11-06T02:07:28.946Z,101459.03
2022-11-06T02:09:55.897Z,101457.28
2022-11-06T02:12:43.664Z,101452.91
2022-11-06T02:15:42.735Z,101451.94
2022-11-06T02:18:59.335Z,101453.59
2022-11-06T02:22:06.877Z,101446.56
2022-11-06T02:25:12.897Z,101443.94
2022-11-06T02:27:45.671Z,101451.69
2022-11-06T02:30:15.723Z,101449.94
2022-11-06T02:33:00.500Z,101442.16
2022-11-06T02:35:40.433Z,101437.66
2022-11-06T02:38:16.352Z,101446.44
2022-11-06T02:40:49.769Z,101448.06
2022-11-06T02:43:19.235Z,101453.25
2022-11-06T02:45:55.684Z,101449.78
2022-11-06T02:48:33.083Z,101447.16
2022-11-06T02:51:05.647Z,101445.41
2022-11-06T02:53:33.527Z,101446.19
2022-11-06T02:56:09.317Z,101456.56
2022-11-06T02:58:48.745Z,101442.66
2022-11-06T03:01:43.518Z,101441.63
2022-11-06T03:04:24.377Z,101440.81
2022-11-06T03:07:06.167Z,101448.59
2022-11-06T03:09:33.756Z,101436.44
2022-11-06T03:12:17.215Z,101439.91
2022-11-06T03:15:25.003Z,101416.28
2022-11-06T03:18:13.931Z,101424.25
2022-11-06T03:21:03.496Z,101424.25
2022-11-06T03:23:53.743Z,101417.28
2022-11-06T03:26:50.009Z,101412.09
2022-11-06T03:29:42.174Z,101410.34
2022-11-06T03:32:24.515Z,101405.06
2022-11-06T03:35:01.229Z,101419.06
2022-11-06T03:37:39.918Z,101412.19
2022-11-06T03:40:14.509Z,101406.09
2022-11-06T03:42:43.419Z,101403.59
2022-11-06T03:45:16.422Z,101394.94
2022-11-06T03:47:53.095Z,101404.47
2022-11-06T03:50:48.633Z,101401.88
2022-11-06T03:53:26.689Z,101398.38
2022-11-06T03:56:02.139Z,101403.56
2022-11-06T03:58:37.614Z,101393.19
2022-11-06T04:01:08.063Z,101391.50
2022-11-06T04:03:44.216Z,101392.41
2022-11-06T04:06:30.613Z,101388.09
2022-11-06T04:09:21.730Z,101389.88
2022-11-06T04:12:08.645Z,101384.63
2022-11-06T04:14:40.111Z,101391.53
2022-11-06T04:17:11.178Z,101384.63
2022-11-06T04:19:43.839Z,101385.50
2022-11-06T04:22:58.319Z,101384.63
2022-11-06T04:26:05.219Z,101387.22
2022-11-06T04:28:58.828Z,101386.34
2022-11-06T04:31:49.021Z,101390.69
2022-11-06T04:34:46.186Z,101392.41
2022-11-06T04:37:27.617Z,101391.53
2022-11-06T04:40:10.177Z,101390.69
2022-11-06T04:42:57.651Z,101396.69
2022-11-06T04:45:39.751Z,101398.47
2022-11-06T04:48:07.746Z,101389.81
2022-11-06T04:50:43.714Z,101381.16
2022-11-06T04:53:11.576Z,101376.84
2022-11-06T04:55:51.736Z,101355.97
2022-11-06T04:58:18.675Z,101353.38
2022-11-06T05:00:49.363Z,101360.38
2022-11-06T05:03:17.021Z,101371.59
2022-11-06T05:05:43.898Z,101372.31
2022-11-06T05:08:20.069Z,101369.84
2022-11-06T05:10:47.799Z,101362.94
2022-11-06T05:13:15.920Z,101365.53
2022-11-06T05:15:43.106Z,101358.59
2022-11-06T05:18:10.110Z,101353.44
2022-11-06T05:20:37.295Z,101364.63
2022-11-06T05:23:04.261Z,101365.53
2022-11-06T05:25:35.302Z,101362.94
2022-11-06T05:28:05.791Z,101364.63
2022-11-06T05:30:33.714Z,101365.53
2022-11-06T05:33:00.907Z,101357.56
2022-11-06T05:35:28.071Z,101355.16
2022-11-06T05:38:02.577Z,101353.47
2022-11-06T05:40:29.767Z,101354.38
2022-11-06T05:42:56.635Z,101344.88
2022-11-06T05:45:23.529Z,101339.72
2022-11-06T05:47:50.395Z,101339.72
2022-11-06T05:50:17.450Z,101351.84
2022-11-06T05:52:44.364Z,101337.91
2022-11-06T05:55:14.880Z,101344.00
2022-11-06T05:57:42.501Z,101334.22
2022-11-06T06:00:11.782Z,101337.63
2022-11-06T06:02:43.171Z,101346.50
2022-11-06T06:05:10.231Z,101356.88
2022-11-06T06:07:37.141Z,101356.03
2022-11-06T06:10:04.808Z,101358.56
2022-11-06T06:12:31.666Z,101364.59
2022-11-06T06:14:58.537Z,101367.25
2022-11-06T06:17:25.480Z,101377.66
2022-11-06T06:19:52.531Z,101358.59
2022-11-06T06:22:19.538Z,101343.91
2022-11-06T06:24:46.524Z,101346.53
2022-11-06T06:27:13.484Z,101350.00
2022-11-06T06:29:40.362Z,101354.41
2022-11-06T06:32:07.257Z,101352.78
2022-11-06T06:34:34.160Z,101357.91
2022-11-06T06:37:01.025Z,101361.56
2022-11-06T06:39:27.926Z,101371.16
2022-11-06T06:41:54.794Z,101372.09
2022-11-06T06:44:21.686Z,101368.63
2022-11-06T06:46:48.542Z,101361.75
2022-11-06T06:49:15.437Z,101376.53
2022-11-06T06:51:42.334Z,101351.25
2022-11-06T06:54:09.298Z,101369.63
2022-11-06T06:56:36.346Z,101378.31
2022-11-06T06:59:03.225Z,101382.69
2022-11-06T07:01:30.480Z,101385.31
2022-11-06T07:04:01.437Z,101386.19
2022-11-06T07:06:30.741Z,101390.56
2022-11-06T07:08:57.632Z,101374.03
2022-11-06T07:11:24.625Z,101388.06
2022-11-06T07:13:51.499Z,101380.28
2022-11-06T07:16:18.596Z,101378.59
2022-11-06T07:18:45.484Z,101368.16
2022-11-06T07:21:13.410Z,101379.44
2022-11-06T07:23:40.595Z,101388.22
2022-11-06T07:26:07.723Z,101375.28
2022-11-06T07:28:34.825Z,101360.56
2022-11-06T07:31:04.654Z,101368.34
2022-11-06T07:33:32.610Z,101347.56
2022-11-06T07:36:08.744Z,101355.34
2022-11-06T07:38:36.878Z,101359.66
2022-11-06T07:41:12.760Z,101362.28
2022-11-06T07:43:41.851Z,101358.81
2022-11-06T07:46:12.022Z,101363.91
2022-11-06T07:48:39.618Z,101374.50
2022-11-06T07:51:08.611Z,101369.31
2022-11-06T07:53:36.634Z,101368.50
2022-11-06T07:56:04.015Z,101382.41
2022-11-06T07:58:31.161Z,101380.78
2022-11-06T08:00:58.952Z,101374.81
2022-11-06T08:03:28.147Z,101353.88
2022-11-06T08:05:55.040Z,101375.84
2022-11-06T08:08:21.959Z,101370.78
2022-11-06T08:10:51.765Z,101357.78
2022-11-06T08:13:18.894Z,101360.63
2022-11-06T08:15:46.080Z,101360.63
2022-11-06T08:18:13.328Z,101364.38
2022-11-06T08:20:41.124Z,101357.56
2022-11-06T08:23:11.257Z,101351.72
2022-11-06T08:25:39.161Z,101363.16
2022-11-06T08:28:06.160Z,101358.13
2022-11-06T08:30:33.266Z,101357.41
2022-11-06T08:33:07.083Z,101356.72
2022-11-06T08:35:37.396Z,101342.94
2022-11-06T08:38:04.614Z,101342.97
2022-11-06T08:40:31.814Z,101345.78
2022-11-06T08:43:03.712Z,101337.13
2022-11-06T08:45:31.094Z,101334.50
2022-11-06T08:48:02.748Z,101341.56
2022-11-06T08:50:31.895Z,101339.84
2022-11-06T08:53:04.192Z,101350.28
2022-11-06T08:55:32.738Z,101354.66
2022-11-06T08:57:59.831Z,101353.84
2022-11-06T09:00:27.424Z,101341.72
2022-11-06T09:03:10.434Z,101345.19
2022-11-06T09:05:41.522Z,101333.03
2022-11-06T09:08:09.426Z,101326.97
2022-11-06T09:10:38.404Z,101330.44
2022-11-06T09:13:05.360Z,101323.53
2022-11-06T09:15:32.625Z,101315.00
2022-11-06T09:17:59.517Z,101320.25
2022-11-06T09:20:27.647Z,101315.94
2022-11-06T09:22:55.294Z,101304.69
2022-11-06T09:25:22.307Z,101307.34
2022-11-06T09:27:58.471Z,101304.84
2022-11-06T09:30:27.887Z,101290.13
2022-11-06T09:32:58.530Z,101308.47
2022-11-06T09:35:30.394Z,101305.97
2022-11-06T09:38:07.326Z,101304.28
2022-11-06T09:40:53.454Z,101306.09
2022-11-06T09:44:02.801Z,101300.13
2022-11-06T09:46:26.852Z,101301.13
2022-11-06T09:49:06.335Z,101296.84
2022-11-06T09:51:50.926Z,101293.53
2022-11-06T09:55:00.730Z,101297.13
2022-11-06T09:57:52.177Z,101295.47
2022-11-06T10:00:19.378Z,101293.81
2022-11-06T10:02:56.811Z,101298.25
2022-11-06T10:05:31.680Z,101294.84
2022-11-06T10:08:01.988Z,101296.66
2022-11-06T10:10:45.924Z,101300.19
2022-11-06T10:13:51.287Z,101299.34
2022-11-06T10:16:53.839Z,101304.66
2022-11-06T10:19:41.482Z,101300.34
2022-11-06T10:22:08.214Z,101296.88
2022-11-06T10:24:58.906Z,101295.16
2022-11-06T10:27:41.081Z,101291.69
2022-11-06T10:30:16.102Z,101285.59
2022-11-06T10:33:01.015Z,101282.09
2022-11-06T10:36:08.005Z,101287.34
2022-11-06T10:38:38.235Z,101282.97
2022-11-06T10:41:05.475Z,101285.59
2022-11-06T10:43:37.797Z,101269.00
2022-11-06T10:46:29.818Z,101269.88
2022-11-06T10:49:05.198Z,101267.28
2022-11-06T10:51:58.292Z,101260.28
2022-11-06T10:54:49.583Z,101255.91
2022-11-06T10:57:40.308Z,101250.66
2022-11-06T11:00:13.248Z,101245.44
2022-11-06T11:02:47.420Z,101234.09
2022-11-06T11:05:20.242Z,101233.22
2022-11-06T11:07:49.453Z,101229.72
2022-11-06T11:10:29.027Z,101227.97
2022-11-06T11:13:05.337Z,101225.34
2022-11-06T11:15:48.122Z,101219.22
2022-11-06T11:18:34.499Z,101215.72
2022-11-06T11:21:28.709Z,101212.25
2022-11-06T11:24:07.337Z,101219.25
2022-11-06T11:27:01.580Z,101215.72
2022-11-06T11:29:41.754Z,101216.63
2022-11-06T11:32:09.179Z,101207.00
2022-11-06T11:34:49.178Z,101190.44
2022-11-06T11:37:34.047Z,101207.88
2022-11-06T11:40:39.093Z,101200.03
2022-11-06T11:43:24.973Z,101197.41
2022-11-06T11:46:10.151Z,101193.88
2022-11-06T11:48:52.135Z,101190.38
2022-11-06T11:52:04.507Z,101189.47
2022-11-06T11:54:34.640Z,101178.13
2022-11-06T11:57:07.617Z,101185.13
2022-11-06T11:59:44.312Z,101187.72
2022-11-06T12:02:29.755Z,101194.72
2022-11-06T12:05:06.336Z,101184.25
2022-11-06T12:07:42.001Z,101179.88
2022-11-06T12:10:28.126Z,101182.50
2022-11-06T12:12:56.137Z,101173.78
2022-11-06T12:15:39.324Z,101174.66
2022-11-06T12:18:13.211Z,101179.03
2022-11-06T12:20:45.477Z,101174.66
2022-11-06T12:23:37.973Z,101162.41
2022-11-06T12:26:18.337Z,101158.94
2022-11-06T12:28:50.101Z,101140.59
2022-11-06T12:31:37.729Z,101144.09
2022-11-06T12:34:17.438Z,101143.22
2022-11-06T12:37:08.404Z,101147.56
2022-11-06T12:39:40.817Z,101145.81
2022-11-06T12:42:12.703Z,101133.63
2022-11-06T12:44:39.720Z,101141.44
2022-11-06T12:47:39.143Z,101139.72
2022-11-06T12:50:15.392Z,101141.44
2022-11-06T12:53:06.412Z,101147.59
2022-11-06T12:55:49.901Z,101140.59
2022-11-06T12:58:34.688Z,101144.09
2022-11-06T13:01:28.740Z,101142.34
2022-11-06T13:04:12.290Z,101139.72
2022-11-06T13:07:10.414Z,101145.91
2022-11-06T13:09:45.390Z,101140.63
2022-11-06T13:12:24.491Z,101139.78
2022-11-06T13:15:21.719Z,101150.28
2022-11-06T13:18:14.969Z,101144.16
2022-11-06T13:21:08.226Z,101138.06
2022-11-06T13:23:48.178Z,101146.81
2022-11-06T13:26:47.395Z,101136.34
2022-11-06T13:29:17.611Z,101143.34
2022-11-06T13:32:07.257Z,101132.00
2022-11-06T13:34:38.024Z,101136.34
2022-11-06T13:37:21.536Z,101135.50
2022-11-06T13:40:06.405Z,101138.97
2022-11-06T13:42:43.039Z,101130.25
2022-11-06T13:45:15.085Z,101132.00
2022-11-06T13:48:09.637Z,101132.91
2022-11-06T13:50:51.824Z,101126.78
2022-11-06T13:53:43.193Z,101127.66
2022-11-06T13:56:43.940Z,101115.44
2022-11-06T13:59:33.735Z,101112.81
2022-11-06T14:02:18.996Z,101120.66
2022-11-06T14:05:41.031Z,101116.31
2022-11-06T14:08:20.181Z,101105.84
2022-11-06T14:11:01.029Z,101109.34
2022-11-06T14:13:35.957Z,101106.75
2022-11-06T14:16:14.926Z,101107.63
2022-11-06T14:18:42.663Z,101113.75
2022-11-06T14:21:37.759Z,101101.53
2022-11-06T14:24:37.895Z,101098.94
2022-11-06T14:27:24.620Z,101097.19
2022-11-06T14:30:43.781Z,101090.19
2022-11-06T14:33:43.082Z,101091.97
2022-11-06T14:36:25.052Z,101086.72
2022-11-06T14:38:55.154Z,101096.31
2022-11-06T14:41:34.170Z,101087.59
2022-11-06T14:44:24.835Z,101090.22
2022-11-06T14:47:00.821Z,101094.59
2022-11-06T14:49:40.727Z,101090.22
2022-11-06T14:52:13.151Z,101080.59
2022-11-06T14:54:55.442Z,101084.09
2022-11-06T14:57:46.797Z,101077.16
2022-11-06T15:00:43.301Z,101080.63
2022-11-06T15:03:26.953Z,101060.56
2022-11-06T15:06:18.268Z,101061.47
2022-11-06T15:08:50.767Z,101071.03
2022-11-06T15:11:32.836Z,101066.69
2022-11-06T15:14:02.188Z,101076.25
2022-11-06T15:16:43.415Z,101071.91
2022-11-06T15:19:23.518Z,101072.75
2022-11-06T15:22:17.312Z,101069.25
2022-11-06T15:25:03.949Z,101077.13
2022-11-06T15:27:53.058Z,101073.63
2022-11-06T15:30:20.463Z,101071.00
2022-11-06T15:32:49.366Z,101051.81
2022-11-06T15:35:21.546Z,101071.84
2022-11-06T15:37:57.363Z,101064.88
2022-11-06T15:40:27.790Z,101058.75
2022-11-06T15:42:57.019Z,101056.13
2022-11-06T15:45:28.825Z,101043.94
2022-11-06T15:48:15.899Z,101052.63
2022-11-06T15:50:43.482Z,101048.25
2022-11-06T15:53:13.581Z,101052.59
2022-11-06T15:55:50.858Z,101047.31
2022-11-06T15:58:17.604Z,101051.66
2022-11-06T16:00:46.300Z,101053.38
2022-11-06T16:03:17.602Z,101046.41
2022-11-06T16:05:45.978Z,101054.22
2022-11-06T16:08:15.556Z,101062.88
2022-11-06T16:10:48.311Z,101055.06
2022-11-06T16:13:20.845Z,101056.75
2022-11-06T16:15:57.151Z,101055.00
2022-11-06T16:18:35.495Z,101048.03
2022-11-06T16:21:13.618Z,101048.03
2022-11-06T16:23:53.413Z,101041.94
2022-11-06T16:26:24.931Z,101041.91
2022-11-06T16:28:54.827Z,101039.28
2022-11-06T16:31:24.783Z,101032.31
2022-11-06T16:33:57.000Z,101027.09
2022-11-06T16:36:25.709Z,101021.84
2022-11-06T16:38:53.988Z,101018.34
2022-11-06T16:41:58.619Z,101015.75
2022-11-06T16:44:31.592Z,101018.34
2022-11-06T16:47:04.791Z,101019.19
2022-11-06T16:49:37.684Z,101014.84
2022-11-06T16:52:39.108Z,101021.75
2022-11-06T16:55:16.837Z,101017.38
2022-11-06T16:57:55.573Z,101026.06
2022-11-06T17:00:31.801Z,101023.44
2022-11-06T17:03:08.631Z,101031.25
2022-11-06T17:05:37.831Z,101025.13
2022-11-06T17:08:36.313Z,101019.91
2022-11-06T17:11:21.796Z,101013.84
2022-11-06T17:13:50.551Z,101014.72
2022-11-06T17:16:24.552Z,101023.38
2022-11-06T17:18:51.787Z,101007.72
2022-11-06T17:21:22.369Z,101013.81
2022-11-06T17:23:50.243Z,101000.72
2022-11-06T17:26:29.027Z,101012.06
2022-11-06T17:28:57.758Z,100999.03
2022-11-06T17:31:25.878Z,100990.28
2022-11-06T17:33:53.597Z,100995.50
2022-11-06T17:36:22.378Z,100995.53
2022-11-06T17:38:49.420Z,100991.16
2022-11-06T17:41:32.321Z,100990.25
2022-11-06T17:44:01.529Z,100997.22
2022-11-06T17:46:33.159Z,101003.31
2022-11-06T17:49:00.745Z,101006.75
2022-11-06T17:51:46.147Z,100997.19
2022-11-06T17:54:13.711Z,100998.94
2022-11-06T17:56:40.861Z,100991.09
2022-11-06T17:59:09.769Z,100983.25
2022-11-06T18:01:36.881Z,100992.81
2022-11-06T18:04:04.503Z,100998.88
2022-11-06T18:06:31.888Z,100989.34
2022-11-06T18:09:01.452Z,100986.69
2022-11-06T18:11:30.631Z,100992.81
2022-11-06T18:13:57.783Z,100968.34
2022-11-06T18:16:28.712Z,100991.03
2022-11-06T18:18:56.720Z,100982.25
2022-11-06T18:21:24.969Z,101004.09
2022-11-06T18:23:52.151Z,100992.78
2022-11-06T18:26:22.769Z,100989.28
2022-11-06T18:28:50.425Z,100990.13
2022-11-06T18:31:18.814Z,100988.41
2022-11-06T18:33:45.852Z,100980.59
2022-11-06T18:36:14.249Z,100969.25
2022-11-06T18:38:41.637Z,100965.72
2022-11-06T18:41:14.998Z,100979.59
2022-11-06T18:43:42.095Z,100981.34
2022-11-06T18:46:12.655Z,100974.41
2022-11-06T18:48:40.076Z,100976.16
2022-11-06T18:51:12.383Z,100974.41
2022-11-06T18:53:40.823Z,100958.78
2022-11-06T18:56:17.296Z,100954.41
2022-11-06T18:58:44.618Z,100950.06
2022-11-06T19:01:18.774Z,100937.91
2022-11-06T19:03:46.744Z,100948.34
2022-11-06T19:06:17.152Z,100934.44
2022-11-06T19:08:45.291Z,100935.25
2022-11-06T19:11:15.775Z,100927.47
2022-11-06T19:13:47.604Z,100923.94
2022-11-06T19:16:16.032Z,100936.97
2022-11-06T19:18:42.934Z,100939.56
2022-11-06T19:21:11.674Z,100930.91
2022-11-06T19:23:41.471Z,100936.09
2022-11-06T19:29:00.663Z,100924.78
2022-11-06T19:31:31.784Z,100920.41
2022-11-06T19:33:59.747Z,100919.53
2022-11-06T19:36:27.483Z,100908.22
2022-11-06T19:38:54.751Z,100919.53
2022-11-06T19:41:21.661Z,100903.00
2022-11-06T19:43:48.577Z,100893.44
2022-11-06T19:46:23.388Z,100911.72
2022-11-06T19:48:52.767Z,100906.50
2022-11-06T19:51:19.783Z,100902.16
2022-11-06T19:53:46.686Z,100902.16
2022-11-06T19:56:16.487Z,100908.22
2022-11-06T19:58:43.734Z,100903.88
2022-11-06T20:01:15.342Z,100898.66
2022-11-06T20:03:42.735Z,100903.00
2022-11-06T20:06:10.572Z,100895.19
2022-11-06T20:08:38.903Z,100893.44
2022-11-06T20:11:08.075Z,100889.97
2022-11-06T20:13:39.050Z,100892.53
2022-11-06T20:16:08.923Z,100894.28
2022-11-06T20:18:36.378Z,100893.38
2022-11-06T20:21:07.452Z,100889.03
2022-11-06T20:23:35.295Z,100897.75
2022-11-06T20:26:03.622Z,100893.38
2022-11-06T20:28:30.629Z,100887.25
2022-11-06T20:30:58.379Z,100889.91
2022-11-06T20:33:25.406Z,100890.78
2022-11-06T20:35:52.286Z,100882.97
2022-11-06T20:38:19.810Z,100878.63
2022-11-06T20:40:46.690Z,100867.34
2022-11-06T20:43:13.893Z,100866.44
2022-11-06T20:45:40.955Z,100864.72
2022-11-06T20:48:09.423Z,100864.72
2022-11-06T20:50:36.407Z,100855.16
2022-11-06T20:53:03.318Z,100855.16
2022-11-06T20:55:30.237Z,100853.44
2022-11-06T20:57:57.125Z,100848.25
2022-11-06T21:00:24.031Z,100847.41
2022-11-06T21:02:51.990Z,100837.88
2022-11-06T21:05:19.948Z,100829.19
2022-11-06T21:07:46.853Z,100816.19
2022-11-06T21:10:13.718Z,100817.94
2022-11-06T21:12:40.589Z,100808.41
2022-11-06T21:15:08.103Z,100804.94
2022-11-06T21:17:35.314Z,100796.25
2022-11-06T21:20:02.196Z,100794.56
2022-11-06T21:22:29.175Z,100796.25
2022-11-06T21:24:56.146Z,100785.84
2022-11-06T21:27:23.024Z,100780.63
2022-11-06T21:29:49.905Z,100787.59
2022-11-06T21:32:16.770Z,100780.66
2022-11-06T21:34:43.661Z,100779.78
2022-11-06T21:37:10.555Z,100764.13
2022-11-06T21:39:37.540Z,100771.09
2022-11-06T21:42:05.406Z,100766.72
2022-11-06T21:44:32.450Z,100769.34
2022-11-06T21:46:59.319Z,100758.06
2022-11-06T21:49:26.241Z,100758.03
2022-11-06T21:51:54.134Z,100765.88
2022-11-06T21:54:39.927Z,100766.75
2022-11-06T21:57:06.799Z,100758.97
2022-11-06T21:59:37.628Z,100775.47
2022-11-06T22:02:09.531Z,100765.03
2022-11-06T22:04:36.485Z,100774.59
2022-11-06T22:07:03.343Z,100766.81
2022-11-06T22:09:30.222Z,100778.09
2022-11-06T22:11:59.210Z,100785.03
2022-11-06T22:14:27.397Z,100776.38
2022-11-06T22:16:54.266Z,100783.31
2022-11-06T22:19:21.156Z,100785.06
2022-11-06T22:21:48.034Z,100779.84
2022-11-06T22:24:15.462Z,100782.47
2022-11-06T22:26:42.392Z,100786.81
2022-11-06T22:29:12.800Z,100775.53
2022-11-06T22:31:40.008Z,100772.06
2022-11-06T22:34:06.950Z,100777.28
2022-11-06T22:36:33.879Z,100774.66
2022-11-06T22:39:06.423Z,100769.47
2022-11-06T22:41:33.541Z,100768.63
2022-11-06T22:44:01.283Z,100763.38
2022-11-06T22:46:29.131Z,100750.38
2022-11-06T22:48:57.112Z,100768.59
2022-11-06T22:51:27.807Z,100762.53
2022-11-06T22:53:55.718Z,100773.81
2022-11-06T22:56:24.864Z,100766.00
2022-11-06T22:58:56.896Z,100767.75
2022-11-06T23:01:26.677Z,100765.13
2022-11-06T23:03:57.718Z,100763.41
2022-11-06T23:06:25.994Z,100760.81
2022-11-06T23:08:53.509Z,100763.41
2022-11-06T23:11:22.643Z,100769.47
2022-11-06T23:13:49.545Z,100766.00
2022-11-06T23:16:42.904Z,100759.94
2022-11-06T23:19:12.808Z,100758.19
2022-11-06T23:21:40.304Z,100749.50
2022-11-06T23:24:07.859Z,100750.38
2022-11-06T23:26:35.040Z,100756.44
2022-11-06T23:29:02.126Z,100749.53
2022-11-06T23:31:29.328Z,100757.34
2022-11-06T23:33:56.539Z,100755.56
2022-11-06T23:36:23.431Z,100755.56
2022-11-06T23:38:53.594Z,100760.78
2022-11-06T23:41:39.169Z,100759.06
2022-11-06T23:44:26.125Z,100740.81
2022-11-06T23:46:53.166Z,100739.97
2022-11-06T23:49:20.029Z,100737.34
2022-11-06T23:51:47.005Z,100732.16
2022-11-06T23:54:14.091Z,100738.22
2022-11-06T23:56:40.957Z,100729.53
2022-11-06T23:59:07.823Z,100741.72
